Pagina principale
METAR-TAF:

METAR-TAF

Aeroporti :

Aeroporto di Gibilterra

Gibilterra, Gibilterra

latitudine: 36-09N, longitudine: 005-21W, altezza: 5 m

Osservazione

Il bollettino è stato emesso 1 ora e 19 minuti fa, alle 22:50 UTC
Vento 17 kt da est/nord-est
Temperature 19°C
Umidità 83%
Pressione 1012 hPa
Visibilità 10 km o più

METAR: LXGB 192250Z AUTO 06017KT 9999 // FEW023/// BKN100/// 19/16 Q1012

Ora: 02:09 (00:09 UTC)

Previsione

Il bollettino è stato emesso 7 ore e 41 minuti fa, alle 16:28 UTC
Previsione valida dal 19 alle 18 UTC al 19 alle 22 UTC
Vento 11 kt da est/nord-est
Visibilità 10 km o più
Poco nuvoloso ad un'altezza di 2200 ft
Temporaneamente
dal 19 alle 18 UTC al 19 alle 22 UTC
Visibilità: 6000 m
Nuvoloso ad un'altezza di 2200 ft
rovesci di pioggia

TAF: LXGB 191628Z 1918/1922 06011KT 9999 FEW022 TEMPO 1918/1922 6000 SHRA BKN022

Osservazioni e previsioni meteorologiche di più di 4000 aeroporti (messaggi METAR e TAF).

Le stazioni disponibili sono rappresentate dai dischi gialli e rossi sulla carta.

Puntare il mouse per vedere il nome della stazione.

Clicca sopra per visualizzare le osservazioni e previsioni meteorologiche.

Per cambiare la mappa : fare clic sui pulsanti verdi con una croce nera per ingrandire, il pulsante verde con un trattino per diminuire, o sulla freccia verde per le mappe adiacenti.


METAR-TAF: